sensor_id;sensor_type;location;lat;lon;timestamp;pressure;altitude;pressure_sealevel;temperature;humidity
74433;BME280;62865;53.146;23.172;2023-05-19T00:02:09;1035.2;;;12.9;75.4
74433;BME280;62865;53.146;23.172;2023-05-19T00:06:39;1035.2;;;12.9;75.2
74433;BME280;62865;53.146;23.172;2023-05-19T00:12:13;1035.2;;;12.8;75.6
74433;BME280;62865;53.146;23.172;2023-05-19T00:16:59;1035.2;;;12.8;75.8
74433;BME280;62865;53.146;23.172;2023-05-19T00:22:13;1035.3;;;12.7;75.6
74433;BME280;62865;53.146;23.172;2023-05-19T00:26:49;1035.3;;;12.7;76.1
74433;BME280;62865;53.146;23.172;2023-05-19T00:32:03;1035.3;;;12.6;76
74433;BME280;62865;53.146;23.172;2023-05-19T00:36:39;1035.3;;;12.5;76.1
74433;BME280;62865;53.146;23.172;2023-05-19T00:41:57;1035.3;;;12.4;77
74433;BME280;62865;53.146;23.172;2023-05-19T00:46:51;1035.3;;;12.5;77.7
74433;BME280;62865;53.146;23.172;2023-05-19T00:51:27;1035.3;;;12.5;77.4
74433;BME280;62865;53.146;23.172;2023-05-19T00:56:57;1035.3;;;12.5;77.1
74433;BME280;62865;53.146;23.172;2023-05-19T01:01:27;1035.3;;;12.4;77
74433;BME280;62865;53.146;23.172;2023-05-19T01:06:39;1035.3;;;12.5;77.3
74433;BME280;62865;53.146;23.172;2023-05-19T01:12:11;1035.3;;;12.5;77.2
74433;BME280;62865;53.146;23.172;2023-05-19T01:16:28;1035.4;;;12.5;77.1
74433;BME280;62865;53.146;23.172;2023-05-19T01:21:59;1035.3;;;12.5;77.2
74433;BME280;62865;53.146;23.172;2023-05-19T01:27:08;1035.3;;;12.4;77.3
74433;BME280;62865;53.146;23.172;2023-05-19T01:32:09;1035.4;;;12.3;77.8
74433;BME280;62865;53.146;23.172;2023-05-19T01:36:27;1035.4;;;12.3;78
74433;BME280;62865;53.146;23.172;2023-05-19T01:41:51;1035.4;;;12.2;78.2
74433;BME280;62865;53.146;23.172;2023-05-19T01:47:11;1035.4;;;12.1;78.7
74433;BME280;62865;53.146;23.172;2023-05-19T01:52:11;1035.4;;;12;79
74433;BME280;62865;53.146;23.172;2023-05-19T01:56:58;1035.3;;;11.8;79.5
74433;BME280;62865;53.146;23.172;2023-05-19T02:01:29;1035.2;;;11.7;80.2
74433;BME280;62865;53.146;23.172;2023-05-19T02:07:04;1035.2;;;11.6;80.6
74433;BME280;62865;53.146;23.172;2023-05-19T02:11:54;1035.2;;;11.6;81.1
74433;BME280;62865;53.146;23.172;2023-05-19T02:16:27;1035.2;;;11.5;81.1
74433;BME280;62865;53.146;23.172;2023-05-19T02:21:49;1035.2;;;11.6;81.4
74433;BME280;62865;53.146;23.172;2023-05-19T02:27:03;1035.2;;;11.6;81.8
74433;BME280;62865;53.146;23.172;2023-05-19T02:31:33;1035.2;;;11.6;82
74433;BME280;62865;53.146;23.172;2023-05-19T02:36:27;1035.2;;;11.6;82.3
74433;BME280;62865;53.146;23.172;2023-05-19T02:42:11;1035.2;;;11.6;82.2
74433;BME280;62865;53.146;23.172;2023-05-19T02:46:27;1035.2;;;11.5;82
74433;BME280;62865;53.146;23.172;2023-05-19T02:52:11;1035.2;;;11.5;81.6
74433;BME280;62865;53.146;23.172;2023-05-19T02:56:57;1035.2;;;11.5;81.6
74433;BME280;62865;53.146;23.172;2023-05-19T03:01:27;1035.2;;;11.5;81.5
74433;BME280;62865;53.146;23.172;2023-05-19T03:06:55;1035.3;;;11.5;81.3
74433;BME280;62865;53.146;23.172;2023-05-19T03:11:45;1035.3;;;11.5;81.5
74433;BME280;62865;53.146;23.172;2023-05-19T03:16:37;1035.3;;;11.5;81.5
74433;BME280;62865;53.146;23.172;2023-05-19T03:22:03;1035.3;;;11.4;81.9
74433;BME280;62865;53.146;23.172;2023-05-19T03:27:11;1035.3;;;11.4;81.5
74433;BME280;62865;53.146;23.172;2023-05-19T03:31:49;1035.3;;;11.4;81.4
74433;BME280;62865;53.146;23.172;2023-05-19T03:37:03;1035.3;;;11.4;81.3
74433;BME280;62865;53.146;23.172;2023-05-19T03:41:27;1035.3;;;11.3;81.8
74433;BME280;62865;53.146;23.172;2023-05-19T03:46:57;1035.4;;;11.3;82
74433;BME280;62865;53.146;23.172;2023-05-19T03:51:27;1035.4;;;11.3;82.2
74433;BME280;62865;53.146;23.172;2023-05-19T03:56:40;1035.4;;;11.3;82.2
74433;BME280;62865;53.146;23.172;2023-05-19T04:02:11;1035.4;;;11.3;82.1
74433;BME280;62865;53.146;23.172;2023-05-19T04:06:39;1035.4;;;11.2;82.4
74433;BME280;62865;53.146;23.172;2023-05-19T04:11:37;1035.3;;;11.2;82.5
74433;BME280;62865;53.146;23.172;2023-05-19T04:17:11;1035.3;;;11.2;82.3
74433;BME280;62865;53.146;23.172;2023-05-19T04:21:37;1035.3;;;11.2;82.6
74433;BME280;62865;53.146;23.172;2023-05-19T04:26:27;1035.3;;;11.2;82.5
74433;BME280;62865;53.146;23.172;2023-05-19T04:32:01;1035.3;;;11.2;82.4
74433;BME280;62865;53.146;23.172;2023-05-19T04:37:11;1035.3;;;11.2;82
74433;BME280;62865;53.146;23.172;2023-05-19T04:41:27;1035.3;;;11.2;82.1
74433;BME280;62865;53.146;23.172;2023-05-19T04:46:39;1035.2;;;11.2;82
74433;BME280;62865;53.146;23.172;2023-05-19T04:52:13;1035.2;;;11.3;81.5
74433;BME280;62865;53.146;23.172;2023-05-19T04:57:11;1035.2;;;11.3;81
74433;BME280;62865;53.146;23.172;2023-05-19T05:01:51;1035.2;;;11.4;80.9
74433;BME280;62865;53.146;23.172;2023-05-19T05:06:59;1035.3;;;11.4;80.7
74433;BME280;62865;53.146;23.172;2023-05-19T05:12:14;1035.3;;;11.4;80.7
74433;BME280;62865;53.146;23.172;2023-05-19T05:16:59;1035.3;;;11.4;80.8
74433;BME280;62865;53.146;23.172;2023-05-19T05:21:40;1035.2;;;11.4;80.9
74433;BME280;62865;53.146;23.172;2023-05-19T05:26:39;1035.3;;;11.4;81
74433;BME280;62865;53.146;23.172;2023-05-19T05:31:29;1035.3;;;11.6;80.9
74433;BME280;62865;53.146;23.172;2023-05-19T05:36:39;1035.3;;;11.7;80.8
74433;BME280;62865;53.146;23.172;2023-05-19T05:41:51;1035.3;;;11.7;80.4
74433;BME280;62865;53.146;23.172;2023-05-19T05:47:13;1035.3;;;11.8;80.2
74433;BME280;62865;53.146;23.172;2023-05-19T05:51:48;1035.3;;;11.9;79.8
74433;BME280;62865;53.146;23.172;2023-05-19T05:57:14;1035.4;;;12;79.2
74433;BME280;62865;53.146;23.172;2023-05-19T06:01:59;1035.4;;;12.1;78.9
74433;BME280;62865;53.146;23.172;2023-05-19T06:06:27;1035.4;;;12.2;78.5
74433;BME280;62865;53.146;23.172;2023-05-19T06:11:57;1035.4;;;12.3;78.4
74433;BME280;62865;53.146;23.172;2023-05-19T06:16:37;1035.4;;;12.5;78
74433;BME280;62865;53.146;23.172;2023-05-19T06:21:27;1035.4;;;12.6;77.1
74433;BME280;62865;53.146;23.172;2023-05-19T06:27:05;1035.4;;;12.7;76.8
74433;BME280;62865;53.146;23.172;2023-05-19T06:32:11;1035.4;;;12.8;76.7
74433;BME280;62865;53.146;23.172;2023-05-19T06:36:59;1035.5;;;13;76.5
74433;BME280;62865;53.146;23.172;2023-05-19T06:42:11;1035.4;;;13.1;75.5
74433;BME280;62865;53.146;23.172;2023-05-19T06:47:09;1035.3;;;13;75.4
74433;BME280;62865;53.146;23.172;2023-05-19T06:51:59;1035.4;;;13.1;74.7
74433;BME280;62865;53.146;23.172;2023-05-19T06:56:49;1035.4;;;13.3;75
74433;BME280;62865;53.146;23.172;2023-05-19T07:01:41;1035.5;;;13.5;74.4
74433;BME280;62865;53.146;23.172;2023-05-19T07:07:05;1035.6;;;13.7;73.3
74433;BME280;62865;53.146;23.172;2023-05-19T07:11:53;1035.6;;;13.8;72.7
74433;BME280;62865;53.146;23.172;2023-05-19T07:16:51;1035.6;;;13.9;71.8
74433;BME280;62865;53.146;23.172;2023-05-19T07:22:13;1035.4;;;13.7;71.9
74433;BME280;62865;53.146;23.172;2023-05-19T07:27:13;1035.4;;;14;71.9
74433;BME280;62865;53.146;23.172;2023-05-19T07:31:33;1035.4;;;14.5;71
74433;BME280;62865;53.146;23.172;2023-05-19T07:36:27;1035.3;;;15;69
74433;BME280;62865;53.146;23.172;2023-05-19T07:41:47;1035.3;;;15.4;67.4
74433;BME280;62865;53.146;23.172;2023-05-19T07:46:31;1035.3;;;15.7;66.8
74433;BME280;62865;53.146;23.172;2023-05-19T07:52:03;1035.3;;;16.3;65.4
74433;BME280;62865;53.146;23.172;2023-05-19T07:57:13;1035.3;;;17;63.6
74433;BME280;62865;53.146;23.172;2023-05-19T08:02:13;1035.3;;;17.5;61.9
74433;BME280;62865;53.146;23.172;2023-05-19T08:06:39;1035.4;;;17.6;61.2
74433;BME280;62865;53.146;23.172;2023-05-19T08:11:37;1035.4;;;17.8;60.2
74433;BME280;62865;53.146;23.172;2023-05-19T08:17:13;1035.3;;;17.7;59.8
74433;BME280;62865;53.146;23.172;2023-05-19T08:21:59;1035.3;;;17.7;59.3
74433;BME280;62865;53.146;23.172;2023-05-19T08:26:27;1035.3;;;17.8;59
74433;BME280;62865;53.146;23.172;2023-05-19T08:31:49;1035.3;;;17.9;58.4
74433;BME280;62865;53.146;23.172;2023-05-19T08:36:49;1035.3;;;18.2;57.7
74433;BME280;62865;53.146;23.172;2023-05-19T08:41:25;1035.3;;;18.4;57.1
74433;BME280;62865;53.146;23.172;2023-05-19T08:46:25;1035.3;;;18.6;56.1
74433;BME280;62865;53.146;23.172;2023-05-19T08:52:16;1035.3;;;18.6;54.9
74433;BME280;62865;53.146;23.172;2023-05-19T08:56:35;1035.3;;;18.6;54
74433;BME280;62865;53.146;23.172;2023-05-19T09:01:59;1035.3;;;18.6;53.9
74433;BME280;62865;53.146;23.172;2023-05-19T09:06:59;1035.3;;;18.5;53.2
74433;BME280;62865;53.146;23.172;2023-05-19T09:11:37;1035.3;;;18.3;53.2
74433;BME280;62865;53.146;23.172;2023-05-19T09:16:29;1035.3;;;18.3;53.7
74433;BME280;62865;53.146;23.172;2023-05-19T09:21:45;1035.2;;;18.3;52.3
74433;BME280;62865;53.146;23.172;2023-05-19T09:26:34;1035.2;;;18.1;53.2
74433;BME280;62865;53.146;23.172;2023-05-19T09:32:05;1035.2;;;18.1;52.6
74433;BME280;62865;53.146;23.172;2023-05-19T09:37:13;1035.2;;;18;52.7
74433;BME280;62865;53.146;23.172;2023-05-19T09:41:40;1035.2;;;17.5;53.2
74433;BME280;62865;53.146;23.172;2023-05-19T09:47:13;1035.1;;;17.3;54.3
74433;BME280;62865;53.146;23.172;2023-05-19T09:52:14;1035.2;;;17.4;54.4
74433;BME280;62865;53.146;23.172;2023-05-19T09:57:00;1035.2;;;17.5;54.2
74433;BME280;62865;53.146;23.172;2023-05-19T10:01:53;1035.1;;;17.8;53.3
74433;BME280;62865;53.146;23.172;2023-05-19T10:06:27;1035.1;;;18.2;52.8
74433;BME280;62865;53.146;23.172;2023-05-19T10:12:06;1035.1;;;18.6;52
74433;BME280;62865;53.146;23.172;2023-05-19T10:16:54;1035.1;;;18.8;51.3
74433;BME280;62865;53.146;23.172;2023-05-19T10:21:39;1035.1;;;19.1;51.1
74433;BME280;62865;53.146;23.172;2023-05-19T10:27:13;1035.1;;;19.2;50.5
74433;BME280;62865;53.146;23.172;2023-05-19T10:32:15;1035;;;18.9;51.4
74433;BME280;62865;53.146;23.172;2023-05-19T10:36:46;1035.1;;;18.6;51
74433;BME280;62865;53.146;23.172;2023-05-19T10:41:29;1035.1;;;18.2;51.4
74433;BME280;62865;53.146;23.172;2023-05-19T10:46:59;1035.1;;;17.9;52.3
74433;BME280;62865;53.146;23.172;2023-05-19T10:51:29;1035.1;;;17.7;52.9
74433;BME280;62865;53.146;23.172;2023-05-19T10:56:52;1035.1;;;17.3;53.5
74433;BME280;62865;53.146;23.172;2023-05-19T11:02:02;1035.1;;;17.1;54.6
74433;BME280;62865;53.146;23.172;2023-05-19T11:06:28;1035.1;;;17.1;54.4
74433;BME280;62865;53.146;23.172;2023-05-19T11:12:13;1035.1;;;17.3;54.5
74433;BME280;62865;53.146;23.172;2023-05-19T11:16:46;1035.1;;;17.3;54.5
74433;BME280;62865;53.146;23.172;2023-05-19T11:22:13;1035.1;;;17.4;54.3
74433;BME280;62865;53.146;23.172;2023-05-19T11:27:15;1035.1;;;17.5;54.3
74433;BME280;62865;53.146;23.172;2023-05-19T11:32:18;1035.1;;;17.7;54
74433;BME280;62865;53.146;23.172;2023-05-19T11:36:28;1035.1;;;18;53.7
74433;BME280;62865;53.146;23.172;2023-05-19T11:42:07;1035.1;;;18.4;52.9
74433;BME280;62865;53.146;23.172;2023-05-19T11:46:28;1035.1;;;18.8;52
74433;BME280;62865;53.146;23.172;2023-05-19T11:52:04;1035.1;;;19;51.2
74433;BME280;62865;53.146;23.172;2023-05-19T11:56:54;1035.1;;;18.9;51.2
74433;BME280;62865;53.146;23.172;2023-05-19T12:01:42;1035.1;;;18.5;52.1
74433;BME280;62865;53.146;23.172;2023-05-19T12:07:18;1035.2;;;18.5;52
74433;BME280;62865;53.146;23.172;2023-05-19T12:11:48;1035.2;;;18.5;52.3
74433;BME280;62865;53.146;23.172;2023-05-19T12:16:54;1035.1;;;18.8;51.9
74433;BME280;62865;53.146;23.172;2023-05-19T12:22:18;1035.1;;;19.4;51
74433;BME280;62865;53.146;23.172;2023-05-19T12:27:04;1035.1;;;19.7;50.4
74433;BME280;62865;53.146;23.172;2023-05-19T12:31:56;1035.1;;;19.6;49.9
74433;BME280;62865;53.146;23.172;2023-05-19T12:37:18;1035.1;;;19.4;50.2
74433;BME280;62865;53.146;23.172;2023-05-19T12:42:18;1035.1;;;19.2;50.8
74433;BME280;62865;53.146;23.172;2023-05-19T12:46:44;1035.1;;;19;51.1
74433;BME280;62865;53.146;23.172;2023-05-19T12:52:18;1035.1;;;18.8;51.8
74433;BME280;62865;53.146;23.172;2023-05-19T12:57:18;1035.1;;;18.5;52.5
74433;BME280;62865;53.146;23.172;2023-05-19T13:02:02;1035.1;;;18.3;52.9
74433;BME280;62865;53.146;23.172;2023-05-19T13:06:42;1035.1;;;18.1;53.4
74433;BME280;62865;53.146;23.172;2023-05-19T13:12:08;1035.1;;;18;53.8
74433;BME280;62865;53.146;23.172;2023-05-19T13:17:06;1035.1;;;17.9;54.1
74433;BME280;62865;53.146;23.172;2023-05-19T13:22:00;1035.1;;;17.8;54.4
74433;BME280;62865;53.146;23.172;2023-05-19T13:26:52;1035;;;17.6;54.8
74433;BME280;62865;53.146;23.172;2023-05-19T13:32:18;1034.9;;;17.7;55
74433;BME280;62865;53.146;23.172;2023-05-19T13:37:18;1034.9;;;17.9;54.9
74433;BME280;62865;53.146;23.172;2023-05-19T13:42:02;1035;;;18;54.1
74433;BME280;62865;53.146;23.172;2023-05-19T13:46:56;1034.9;;;18;54.2
74433;BME280;62865;53.146;23.172;2023-05-19T13:51:44;1034.9;;;18.3;54.2
74433;BME280;62865;53.146;23.172;2023-05-19T13:56:42;1034.9;;;18.4;53.3
74433;BME280;62865;53.146;23.172;2023-05-19T14:01:42;1034.9;;;18.6;53.2
74433;BME280;62865;53.146;23.172;2023-05-19T14:07:04;1034.9;;;18.8;52.7
74433;BME280;62865;53.146;23.172;2023-05-19T14:11:40;1034.9;;;18.8;52.4
74433;BME280;62865;53.146;23.172;2023-05-19T14:17:18;1034.9;;;18.8;52.3
74433;BME280;62865;53.146;23.172;2023-05-19T14:22:04;1034.9;;;18.8;52.4
74433;BME280;62865;53.146;23.172;2023-05-19T14:27:18;1034.9;;;18.9;52.4
74433;BME280;62865;53.146;23.172;2023-05-19T14:31:56;1034.9;;;19;52
74433;BME280;62865;53.146;23.172;2023-05-19T14:37:18;1034.9;;;19;52
74433;BME280;62865;53.146;23.172;2023-05-19T14:41:44;1034.9;;;18.9;52
74433;BME280;62865;53.146;23.172;2023-05-19T14:47:10;1034.8;;;18.8;52.3
74433;BME280;62865;53.146;23.172;2023-05-19T14:51:42;1034.8;;;18.8;52.2
74433;BME280;62865;53.146;23.172;2023-05-19T14:56:58;1034.8;;;18.8;52.1
74433;BME280;62865;53.146;23.172;2023-05-19T15:01:54;1034.8;;;18.9;52.2
74433;BME280;62865;53.146;23.172;2023-05-19T15:06:54;1034.8;;;19.1;51.4
74433;BME280;62865;53.146;23.172;2023-05-19T15:12:20;1034.8;;;19.3;50.9
74433;BME280;62865;53.146;23.172;2023-05-19T15:16:48;1034.8;;;19.5;50.4
74433;BME280;62865;53.146;23.172;2023-05-19T15:21:58;1034.8;;;19.8;49.8
74433;BME280;62865;53.146;23.172;2023-05-19T15:26:46;1034.8;;;20;49
74433;BME280;62865;53.146;23.172;2023-05-19T15:31:44;1034.7;;;19.9;48.9
74433;BME280;62865;53.146;23.172;2023-05-19T15:37:22;1034.7;;;20.1;49.1
74433;BME280;62865;53.146;23.172;2023-05-19T15:42:22;1034.7;;;20.5;48.3
74433;BME280;62865;53.146;23.172;2023-05-19T15:47:20;1034.7;;;20.4;47.9
74433;BME280;62865;53.146;23.172;2023-05-19T15:51:48;1034.6;;;20.3;48.5
74433;BME280;62865;53.146;23.172;2023-05-19T15:56:44;1034.6;;;20.4;48
74433;BME280;62865;53.146;23.172;2023-05-19T16:01:56;1034.6;;;20.1;48.5
74433;BME280;62865;53.146;23.172;2023-05-19T16:07:18;1034.6;;;20;48.3
74433;BME280;62865;53.146;23.172;2023-05-19T16:11:28;1034.6;;;19.8;48.2
74433;BME280;62865;53.146;23.172;2023-05-19T16:16:56;1034.6;;;19.7;48.7
74433;BME280;62865;53.146;23.172;2023-05-19T16:22:20;1034.6;;;19.8;48.9
74433;BME280;62865;53.146;23.172;2023-05-19T16:27:18;1034.6;;;19.9;48.2
74433;BME280;62865;53.146;23.172;2023-05-19T16:32:10;1034.6;;;19.8;48.2
74433;BME280;62865;53.146;23.172;2023-05-19T16:36:54;1034.6;;;19.8;48.3
74433;BME280;62865;53.146;23.172;2023-05-19T16:42:04;1034.6;;;19.7;48.4
74433;BME280;62865;53.146;23.172;2023-05-19T16:46:30;1034.6;;;19.6;48
74433;BME280;62865;53.146;23.172;2023-05-19T16:52:20;1034.5;;;19.2;48.3
74433;BME280;62865;53.146;23.172;2023-05-19T16:57:20;1034.6;;;19;48.7
74433;BME280;62865;53.146;23.172;2023-05-19T17:01:48;1034.6;;;18.8;48.6
74433;BME280;62865;53.146;23.172;2023-05-19T17:07:04;1034.6;;;18.6;48.7
74433;BME280;62865;53.146;23.172;2023-05-19T17:11:42;1034.7;;;18.4;49
74433;BME280;62865;53.146;23.172;2023-05-19T17:16:46;1034.7;;;18.3;49.6
74433;BME280;62865;53.146;23.172;2023-05-19T17:22:20;1034.8;;;18.3;49.9
74433;BME280;62865;53.146;23.172;2023-05-19T17:26:56;1034.8;;;18.2;49.8
74433;BME280;62865;53.146;23.172;2023-05-19T17:32:18;1034.8;;;18.1;49.9
74433;BME280;62865;53.146;23.172;2023-05-19T17:36:28;1034.8;;;17.9;49.9
74433;BME280;62865;53.146;23.172;2023-05-19T17:41:52;1034.8;;;17.7;50.2
74433;BME280;62865;53.146;23.172;2023-05-19T17:47:04;1034.8;;;17.6;50.6
74433;BME280;62865;53.146;23.172;2023-05-19T17:51:30;1034.8;;;17.5;50.7
74433;BME280;62865;53.146;23.172;2023-05-19T17:57:20;1034.7;;;17.4;51.3
74433;BME280;62865;53.146;23.172;2023-05-19T18:02:12;1034.8;;;17.4;51.7
74433;BME280;62865;53.146;23.172;2023-05-19T18:06:48;1034.8;;;17.3;51.9
74433;BME280;62865;53.146;23.172;2023-05-19T18:12:04;1034.8;;;17.2;52.3
74433;BME280;62865;53.146;23.172;2023-05-19T18:16:54;1034.7;;;17.2;52.5
74433;BME280;62865;53.146;23.172;2023-05-19T18:21:48;1034.7;;;17.2;52.3
74433;BME280;62865;53.146;23.172;2023-05-19T18:26:56;1034.8;;;17.3;52.2
74433;BME280;62865;53.146;23.172;2023-05-19T18:31:58;1034.8;;;17.3;52
74433;BME280;62865;53.146;23.172;2023-05-19T18:37:02;1034.9;;;17.3;51.9
74433;BME280;62865;53.146;23.172;2023-05-19T18:41:54;1034.9;;;17.2;52.3
74433;BME280;62865;53.146;23.172;2023-05-19T18:47:18;1035;;;17.1;53
74433;BME280;62865;53.146;23.172;2023-05-19T18:52:02;1035;;;17;53.4
74433;BME280;62865;53.146;23.172;2023-05-19T18:56:31;1035;;;17;53.6
74433;BME280;62865;53.146;23.172;2023-05-19T19:01:30;1035;;;16.9;53.4
74433;BME280;62865;53.146;23.172;2023-05-19T19:07:18;1035;;;17;53.6
74433;BME280;62865;53.146;23.172;2023-05-19T19:12:14;1035;;;17;52.6
74433;BME280;62865;53.146;23.172;2023-05-19T19:16:30;1035;;;16.9;52.3
74433;BME280;62865;53.146;23.172;2023-05-19T19:22:16;1035;;;16.9;52.2
74433;BME280;62865;53.146;23.172;2023-05-19T19:26:34;1035;;;16.8;52.3
74433;BME280;62865;53.146;23.172;2023-05-19T19:31:46;1035;;;16.8;52.3
74433;BME280;62865;53.146;23.172;2023-05-19T19:36:56;1035;;;16.7;51.7
74433;BME280;62865;53.146;23.172;2023-05-19T19:41:54;1035.1;;;16.7;51.8
74433;BME280;62865;53.146;23.172;2023-05-19T19:46:30;1035.1;;;16.6;52.2
74433;BME280;62865;53.146;23.172;2023-05-19T19:52:18;1035.1;;;16.4;52.8
74433;BME280;62865;53.146;23.172;2023-05-19T19:57:02;1035;;;16.2;53.4
74433;BME280;62865;53.146;23.172;2023-05-19T20:02:18;1035.1;;;16;54
74433;BME280;62865;53.146;23.172;2023-05-19T20:06:30;1035.1;;;15.8;54.8
74433;BME280;62865;53.146;23.172;2023-05-19T20:11:54;1035.1;;;15.6;55.5
74433;BME280;62865;53.146;23.172;2023-05-19T20:16:32;1035.2;;;15.4;56.2
74433;BME280;62865;53.146;23.172;2023-05-19T20:21:42;1035.2;;;15.2;56.7
74433;BME280;62865;53.146;23.172;2023-05-19T20:27:18;1035.2;;;15.1;57.2
74433;BME280;62865;53.146;23.172;2023-05-19T20:32:10;1035.2;;;14.9;57.4
74433;BME280;62865;53.146;23.172;2023-05-19T20:36:30;1035.2;;;14.7;57.9
74433;BME280;62865;53.146;23.172;2023-05-19T20:42:04;1035.2;;;14.6;58.5
74433;BME280;62865;53.146;23.172;2023-05-19T20:46:30;1035.2;;;14.5;58.6
74433;BME280;62865;53.146;23.172;2023-05-19T20:51:48;1035.3;;;14.4;58.8
74433;BME280;62865;53.146;23.172;2023-05-19T20:56:30;1035.3;;;14.3;59.1
74433;BME280;62865;53.146;23.172;2023-05-19T21:01:58;1035.4;;;14.3;59.1
74433;BME280;62865;53.146;23.172;2023-05-19T21:07:02;1035.4;;;14.2;59.4
74433;BME280;62865;53.146;23.172;2023-05-19T21:11:30;1035.4;;;14.1;59.6
74433;BME280;62865;53.146;23.172;2023-05-19T21:16:32;1035.4;;;14;59.7
74433;BME280;62865;53.146;23.172;2023-05-19T21:22:02;1035.5;;;13.9;59.8
74433;BME280;62865;53.146;23.172;2023-05-19T21:26:56;1035.5;;;13.9;60.1
74433;BME280;62865;53.146;23.172;2023-05-19T21:31:56;1035.4;;;13.8;60.3
74433;BME280;62865;53.146;23.172;2023-05-19T21:37:18;1035.4;;;13.9;60.1
74433;BME280;62865;53.146;23.172;2023-05-19T21:42:20;1035.5;;;14.1;59.9
74433;BME280;62865;53.146;23.172;2023-05-19T21:46:42;1035.5;;;14.2;59.9
74433;BME280;62865;53.146;23.172;2023-05-19T21:52:20;1035.5;;;14.3;60
74433;BME280;62865;53.146;23.172;2023-05-19T21:56:48;1035.5;;;14.4;59.6
74433;BME280;62865;53.146;23.172;2023-05-19T22:01:30;1035.5;;;14.5;59.5
74433;BME280;62865;53.146;23.172;2023-05-19T22:06:44;1035.4;;;14.6;59.4
74433;BME280;62865;53.146;23.172;2023-05-19T22:12:18;1035.4;;;14.6;59.2
74433;BME280;62865;53.146;23.172;2023-05-19T22:16:30;1035.4;;;14.7;58.7
74433;BME280;62865;53.146;23.172;2023-05-19T22:22:10;1035.5;;;14.8;58.4
74433;BME280;62865;53.146;23.172;2023-05-19T22:27:05;1035.5;;;14.9;58
74433;BME280;62865;53.146;23.172;2023-05-19T22:32:20;1035.5;;;14.9;57.9
74433;BME280;62865;53.146;23.172;2023-05-19T22:36:56;1035.5;;;14.9;57.6
74433;BME280;62865;53.146;23.172;2023-05-19T22:41:54;1035.5;;;14.8;57.7
74433;BME280;62865;53.146;23.172;2023-05-19T22:47:04;1035.5;;;14.7;57.8
74433;BME280;62865;53.146;23.172;2023-05-19T22:51:38;1035.5;;;14.8;57.6
74433;BME280;62865;53.146;23.172;2023-05-19T22:57:20;1035.5;;;14.8;57.2
74433;BME280;62865;53.146;23.172;2023-05-19T23:02:18;1035.6;;;14.8;57.1
74433;BME280;62865;53.146;23.172;2023-05-19T23:06:42;1035.6;;;14.7;57.1
74433;BME280;62865;53.146;23.172;2023-05-19T23:11:58;1035.6;;;14.7;57.4
74433;BME280;62865;53.146;23.172;2023-05-19T23:16:50;1035.6;;;14.7;57.2
74433;BME280;62865;53.146;23.172;2023-05-19T23:21:42;1035.6;;;14.8;56.9
74433;BME280;62865;53.146;23.172;2023-05-19T23:27:20;1035.6;;;14.8;56
74433;BME280;62865;53.146;23.172;2023-05-19T23:32:10;1035.6;;;14.8;55.7
74433;BME280;62865;53.146;23.172;2023-05-19T23:37:20;1035.6;;;14.9;55.3
74433;BME280;62865;53.146;23.172;2023-05-19T23:41:30;1035.6;;;14.9;54.8
74433;BME280;62865;53.146;23.172;2023-05-19T23:47:22;1035.6;;;14.9;54.1
74433;BME280;62865;53.146;23.172;2023-05-19T23:51:50;1035.6;;;14.9;53.9
74433;BME280;62865;53.146;23.172;2023-05-19T23:56:30;1035.6;;;14.9;53.8
